sensor_id;sensor_type;location;lat;lon;timestamp;temperature;humidity
83596;HTU21D;73564;45.026;38.952;2024-02-14T00:02:24;17.54;53.70
83596;HTU21D;73564;45.026;38.952;2024-02-14T00:04:52;17.52;53.72
83596;HTU21D;73564;45.026;38.952;2024-02-14T00:07:19;17.50;53.71
83596;HTU21D;73564;45.026;38.952;2024-02-14T00:09:46;17.46;53.76
83596;HTU21D;73564;45.026;38.952;2024-02-14T00:12:11;17.39;53.97
83596;HTU21D;73564;45.026;38.952;2024-02-14T00:14:38;17.38;54.24
83596;HTU21D;73564;45.026;38.952;2024-02-14T00:17:04;17.37;54.13
83596;HTU21D;73564;45.026;38.952;2024-02-14T00:19:31;17.34;54.20
83596;HTU21D;73564;45.026;38.952;2024-02-14T00:21:57;17.33;54.33
83596;HTU21D;73564;45.026;38.952;2024-02-14T00:24:23;17.32;54.50
83596;HTU21D;73564;45.026;38.952;2024-02-14T00:26:50;17.33;54.54
83596;HTU21D;73564;45.026;38.952;2024-02-14T00:29:16;17.31;54.49
83596;HTU21D;73564;45.026;38.952;2024-02-14T00:31:42;17.30;54.60
83596;HTU21D;73564;45.026;38.952;2024-02-14T00:34:10;17.30;54.62
83596;HTU21D;73564;45.026;38.952;2024-02-14T00:36:36;17.28;54.62
83596;HTU21D;73564;45.026;38.952;2024-02-14T00:39:02;17.26;54.76
83596;HTU21D;73564;45.026;38.952;2024-02-14T00:41:28;17.26;54.75
83596;HTU21D;73564;45.026;38.952;2024-02-14T00:43:56;17.30;54.59
83596;HTU21D;73564;45.026;38.952;2024-02-14T00:46:21;17.23;55.75
83596;HTU21D;73564;45.026;38.952;2024-02-14T00:48:47;17.23;54.49
83596;HTU21D;73564;45.026;38.952;2024-02-14T00:51:13;17.18;54.71
83596;HTU21D;73564;45.026;38.952;2024-02-14T00:53:39;17.19;54.84
83596;HTU21D;73564;45.026;38.952;2024-02-14T00:56:05;17.19;54.54
83596;HTU21D;73564;45.026;38.952;2024-02-14T00:58:31;17.19;54.66
83596;HTU21D;73564;45.026;38.952;2024-02-14T01:00:57;17.20;54.69
83596;HTU21D;73564;45.026;38.952;2024-02-14T01:03:23;17.23;54.57
83596;HTU21D;73564;45.026;38.952;2024-02-14T01:05:49;17.22;54.39
83596;HTU21D;73564;45.026;38.952;2024-02-14T01:08:15;17.17;54.74
83596;HTU21D;73564;45.026;38.952;2024-02-14T01:10:41;17.16;54.87
83596;HTU21D;73564;45.026;38.952;2024-02-14T01:13:06;17.15;54.78
83596;HTU21D;73564;45.026;38.952;2024-02-14T01:15:32;17.14;54.25
83596;HTU21D;73564;45.026;38.952;2024-02-14T01:17:59;17.03;54.43
83596;HTU21D;73564;45.026;38.952;2024-02-14T01:20:25;16.98;55.00
83596;HTU21D;73564;45.026;38.952;2024-02-14T01:22:51;17.00;55.17
83596;HTU21D;73564;45.026;38.952;2024-02-14T01:25:18;17.04;55.10
83596;HTU21D;73564;45.026;38.952;2024-02-14T01:27:43;17.09;55.01
83596;HTU21D;73564;45.026;38.952;2024-02-14T01:30:10;17.14;55.06
83596;HTU21D;73564;45.026;38.952;2024-02-14T01:32:36;17.18;55.05
83596;HTU21D;73564;45.026;38.952;2024-02-14T01:35:03;17.23;54.79
83596;HTU21D;73564;45.026;38.952;2024-02-14T01:37:29;17.25;54.78
83596;HTU21D;73564;45.026;38.952;2024-02-14T01:39:55;17.25;54.80
83596;HTU21D;73564;45.026;38.952;2024-02-14T01:42:21;17.23;54.88
83596;HTU21D;73564;45.026;38.952;2024-02-14T01:44:47;17.21;54.60
83596;HTU21D;73564;45.026;38.952;2024-02-14T01:47:13;17.20;54.14
83596;HTU21D;73564;45.026;38.952;2024-02-14T01:49:39;17.11;54.76
83596;HTU21D;73564;45.026;38.952;2024-02-14T01:52:08;17.10;55.20
83596;HTU21D;73564;45.026;38.952;2024-02-14T01:54:35;17.11;55.12
83596;HTU21D;73564;45.026;38.952;2024-02-14T01:57:01;17.16;55.17
83596;HTU21D;73564;45.026;38.952;2024-02-14T01:59:27;17.19;54.36
83596;HTU21D;73564;45.026;38.952;2024-02-14T02:01:53;17.16;53.65
83596;HTU21D;73564;45.026;38.952;2024-02-14T02:04:19;17.02;53.55
83596;HTU21D;73564;45.026;38.952;2024-02-14T02:06:46;16.84;53.46
83596;HTU21D;73564;45.026;38.952;2024-02-14T02:09:12;16.58;54.13
83596;HTU21D;73564;45.026;38.952;2024-02-14T02:11:50;16.44;55.81
83596;HTU21D;73564;45.026;38.952;2024-02-14T02:14:16;16.48;55.84
83596;HTU21D;73564;45.026;38.952;2024-02-14T02:16:42;16.58;55.78
83596;HTU21D;73564;45.026;38.952;2024-02-14T02:19:09;16.72;55.83
83596;HTU21D;73564;45.026;38.952;2024-02-14T02:21:38;16.84;55.74
83596;HTU21D;73564;45.026;38.952;2024-02-14T02:24:04;16.94;55.56
83596;HTU21D;73564;45.026;38.952;2024-02-14T02:26:30;17.04;55.41
83596;HTU21D;73564;45.026;38.952;2024-02-14T02:28:56;17.09;55.48
83596;HTU21D;73564;45.026;38.952;2024-02-14T02:31:22;17.16;55.38
83596;HTU21D;73564;45.026;38.952;2024-02-14T02:33:48;17.21;55.31
83596;HTU21D;73564;45.026;38.952;2024-02-14T02:36:15;17.26;55.34
83596;HTU21D;73564;45.026;38.952;2024-02-14T02:38:41;17.30;55.26
83596;HTU21D;73564;45.026;38.952;2024-02-14T02:41:07;17.34;55.15
83596;HTU21D;73564;45.026;38.952;2024-02-14T02:43:34;17.38;55.07
83596;HTU21D;73564;45.026;38.952;2024-02-14T02:46:00;17.37;54.46
83596;HTU21D;73564;45.026;38.952;2024-02-14T02:48:26;17.25;53.96
83596;HTU21D;73564;45.026;38.952;2024-02-14T02:50:52;17.01;53.99
83596;HTU21D;73564;45.026;38.952;2024-02-14T02:53:18;16.75;54.54
83596;HTU21D;73564;45.026;38.952;2024-02-14T02:55:44;16.57;55.37
83596;HTU21D;73564;45.026;38.952;2024-02-14T02:58:11;16.55;55.81
83596;HTU21D;73564;45.026;38.952;2024-02-14T03:00:37;16.59;56.22
83596;HTU21D;73564;45.026;38.952;2024-02-14T03:03:03;16.72;56.14
83596;HTU21D;73564;45.026;38.952;2024-02-14T03:05:30;16.80;56.06
83596;HTU21D;73564;45.026;38.952;2024-02-14T03:07:59;16.90;55.94
83596;HTU21D;73564;45.026;38.952;2024-02-14T03:10:25;16.96;55.90
83596;HTU21D;73564;45.026;38.952;2024-02-14T03:12:51;17.02;55.71
83596;HTU21D;73564;45.026;38.952;2024-02-14T03:15:18;17.08;55.65
83596;HTU21D;73564;45.026;38.952;2024-02-14T03:17:44;17.11;55.59
83596;HTU21D;73564;45.026;38.952;2024-02-14T03:20:11;17.16;55.49
83596;HTU21D;73564;45.026;38.952;2024-02-14T03:22:40;17.19;55.37
83596;HTU21D;73564;45.026;38.952;2024-02-14T03:25:19;17.19;55.39
83596;HTU21D;73564;45.026;38.952;2024-02-14T03:27:47;17.15;55.43
83596;HTU21D;73564;45.026;38.952;2024-02-14T03:30:15;17.09;55.55
83596;HTU21D;73564;45.026;38.952;2024-02-14T03:32:42;17.06;55.62
83596;HTU21D;73564;45.026;38.952;2024-02-14T03:35:08;17.07;55.75
83596;HTU21D;73564;45.026;38.952;2024-02-14T03:37:37;17.07;55.73
83596;HTU21D;73564;45.026;38.952;2024-02-14T03:40:05;17.07;55.69
83596;HTU21D;73564;45.026;38.952;2024-02-14T03:42:33;17.08;55.74
83596;HTU21D;73564;45.026;38.952;2024-02-14T03:44:59;17.06;55.73
83596;HTU21D;73564;45.026;38.952;2024-02-14T03:47:31;17.07;55.63
83596;HTU21D;73564;45.026;38.952;2024-02-14T03:50:00;17.05;55.62
83596;HTU21D;73564;45.026;38.952;2024-02-14T03:52:28;17.03;55.61
83596;HTU21D;73564;45.026;38.952;2024-02-14T03:54:53;16.98;55.76
83596;HTU21D;73564;45.026;38.952;2024-02-14T03:57:19;16.94;55.71
83596;HTU21D;73564;45.026;38.952;2024-02-14T03:59:46;16.90;55.62
83596;HTU21D;73564;45.026;38.952;2024-02-14T04:02:12;16.88;55.90
83596;HTU21D;73564;45.026;38.952;2024-02-14T04:04:41;16.89;56.00
83596;HTU21D;73564;45.026;38.952;2024-02-14T04:07:08;16.88;56.10
83596;HTU21D;73564;45.026;38.952;2024-02-14T04:09:34;16.90;56.11
83596;HTU21D;73564;45.026;38.952;2024-02-14T04:12:01;16.89;55.44
83596;HTU21D;73564;45.026;38.952;2024-02-14T04:14:26;16.77;55.40
83596;HTU21D;73564;45.026;38.952;2024-02-14T04:16:52;16.63;56.19
83596;HTU21D;73564;45.026;38.952;2024-02-14T04:19:18;16.61;56.60
83596;HTU21D;73564;45.026;38.952;2024-02-14T04:21:44;16.66;56.67
83596;HTU21D;73564;45.026;38.952;2024-02-14T04:24:10;16.67;56.48
83596;HTU21D;73564;45.026;38.952;2024-02-14T04:26:35;16.69;56.61
83596;HTU21D;73564;45.026;38.952;2024-02-14T04:29:01;16.71;56.61
83596;HTU21D;73564;45.026;38.952;2024-02-14T04:31:27;16.72;56.63
83596;HTU21D;73564;45.026;38.952;2024-02-14T04:33:58;16.73;56.69
83596;HTU21D;73564;45.026;38.952;2024-02-14T04:36:24;16.72;56.52
83596;HTU21D;73564;45.026;38.952;2024-02-14T04:38:50;16.69;56.55
83596;HTU21D;73564;45.026;38.952;2024-02-14T04:41:16;16.64;56.57
83596;HTU21D;73564;45.026;38.952;2024-02-14T04:43:42;16.58;56.77
83596;HTU21D;73564;45.026;38.952;2024-02-14T04:46:07;16.56;56.88
83596;HTU21D;73564;45.026;38.952;2024-02-14T04:48:34;16.55;56.84
83596;HTU21D;73564;45.026;38.952;2024-02-14T04:51:01;16.48;56.91
83596;HTU21D;73564;45.026;38.952;2024-02-14T04:53:27;16.43;57.08
83596;HTU21D;73564;45.026;38.952;2024-02-14T04:55:53;16.37;57.35
83596;HTU21D;73564;45.026;38.952;2024-02-14T04:58:20;16.40;57.51
83596;HTU21D;73564;45.026;38.952;2024-02-14T05:00:45;16.44;57.50
83596;HTU21D;73564;45.026;38.952;2024-02-14T05:03:11;16.45;57.38
83596;HTU21D;73564;45.026;38.952;2024-02-14T05:05:38;16.42;57.22
83596;HTU21D;73564;45.026;38.952;2024-02-14T05:08:04;16.41;57.17
83596;HTU21D;73564;45.026;38.952;2024-02-14T05:10:31;16.36;56.61
83596;HTU21D;73564;45.026;38.952;2024-02-14T05:12:57;16.12;56.31
83596;HTU21D;73564;45.026;38.952;2024-02-14T05:15:23;15.84;57.12
83596;HTU21D;73564;45.026;38.952;2024-02-14T05:17:49;15.73;57.70
83596;HTU21D;73564;45.026;38.952;2024-02-14T05:20:16;15.62;56.90
83596;HTU21D;73564;45.026;38.952;2024-02-14T05:22:42;15.40;57.67
83596;HTU21D;73564;45.026;38.952;2024-02-14T05:25:08;15.29;58.45
83596;HTU21D;73564;45.026;38.952;2024-02-14T05:27:57;15.38;61.74
83596;HTU21D;73564;45.026;38.952;2024-02-14T05:30:23;15.54;58.99
83596;HTU21D;73564;45.026;38.952;2024-02-14T05:32:50;15.60;57.48
83596;HTU21D;73564;45.026;38.952;2024-02-14T05:35:18;15.41;57.13
83596;HTU21D;73564;45.026;38.952;2024-02-14T05:37:43;15.14;57.37
83596;HTU21D;73564;45.026;38.952;2024-02-14T05:40:11;14.87;57.75
83596;HTU21D;73564;45.026;38.952;2024-02-14T05:42:37;14.65;58.06
83596;HTU21D;73564;45.026;38.952;2024-02-14T05:45:03;14.49;58.32
83596;HTU21D;73564;45.026;38.952;2024-02-14T05:47:29;14.38;58.67
83596;HTU21D;73564;45.026;38.952;2024-02-14T05:49:55;14.29;58.61
83596;HTU21D;73564;45.026;38.952;2024-02-14T05:52:21;14.21;58.70
83596;HTU21D;73564;45.026;38.952;2024-02-14T05:54:47;14.12;59.22
83596;HTU21D;73564;45.026;38.952;2024-02-14T05:57:13;14.14;60.32
83596;HTU21D;73564;45.026;38.952;2024-02-14T05:59:39;14.38;60.08
83596;HTU21D;73564;45.026;38.952;2024-02-14T06:02:05;14.55;60.00
83596;HTU21D;73564;45.026;38.952;2024-02-14T06:04:33;14.75;59.97
83596;HTU21D;73564;45.026;38.952;2024-02-14T06:06:59;14.94;59.77
83596;HTU21D;73564;45.026;38.952;2024-02-14T06:09:25;15.08;59.65
83596;HTU21D;73564;45.026;38.952;2024-02-14T06:11:50;15.21;59.25
83596;HTU21D;73564;45.026;38.952;2024-02-14T06:14:16;15.28;59.23
83596;HTU21D;73564;45.026;38.952;2024-02-14T06:16:42;15.37;59.23
83596;HTU21D;73564;45.026;38.952;2024-02-14T06:19:08;15.46;59.34
83596;HTU21D;73564;45.026;38.952;2024-02-14T06:21:35;15.56;61.38
83596;HTU21D;73564;45.026;38.952;2024-02-14T06:24:01;15.69;59.39
83596;HTU21D;73564;45.026;38.952;2024-02-14T06:26:30;15.85;59.27
83596;HTU21D;73564;45.026;38.952;2024-02-14T06:28:56;15.98;59.12
83596;HTU21D;73564;45.026;38.952;2024-02-14T06:31:23;16.08;58.48
83596;HTU21D;73564;45.026;38.952;2024-02-14T06:33:49;16.10;58.65
83596;HTU21D;73564;45.026;38.952;2024-02-14T06:36:14;16.19;58.64
83596;HTU21D;73564;45.026;38.952;2024-02-14T06:38:40;16.31;58.59
83596;HTU21D;73564;45.026;38.952;2024-02-14T06:41:06;16.41;58.42
83596;HTU21D;73564;45.026;38.952;2024-02-14T06:43:32;16.55;58.11
83596;HTU21D;73564;45.026;38.952;2024-02-14T06:45:58;16.65;57.71
83596;HTU21D;73564;45.026;38.952;2024-02-14T06:48:23;16.69;56.55
83596;HTU21D;73564;45.026;38.952;2024-02-14T06:50:50;16.49;56.55
83596;HTU21D;73564;45.026;38.952;2024-02-14T06:53:17;16.29;56.63
83596;HTU21D;73564;45.026;38.952;2024-02-14T06:55:43;16.14;56.99
83596;HTU21D;73564;45.026;38.952;2024-02-14T06:58:08;16.03;57.00
83596;HTU21D;73564;45.026;38.952;2024-02-14T07:00:34;15.97;57.01
83596;HTU21D;73564;45.026;38.952;2024-02-14T07:03:00;15.97;57.89
83596;HTU21D;73564;45.026;38.952;2024-02-14T07:05:26;16.15;57.74
83596;HTU21D;73564;45.026;38.952;2024-02-14T07:07:53;16.28;56.52
83596;HTU21D;73564;45.026;38.952;2024-02-14T07:10:19;16.33;56.48
83596;HTU21D;73564;45.026;38.952;2024-02-14T07:12:44;16.37;56.15
83596;HTU21D;73564;45.026;38.952;2024-02-14T07:15:10;16.42;55.64
83596;HTU21D;73564;45.026;38.952;2024-02-14T07:17:36;16.43;55.43
83596;HTU21D;73564;45.026;38.952;2024-02-14T07:20:04;16.50;56.01
83596;HTU21D;73564;45.026;38.952;2024-02-14T07:22:30;16.74;56.05
83596;HTU21D;73564;45.026;38.952;2024-02-14T07:24:56;16.99;56.06
83596;HTU21D;73564;45.026;38.952;2024-02-14T07:27:22;17.22;55.49
83596;HTU21D;73564;45.026;38.952;2024-02-14T07:29:49;17.44;54.96
83596;HTU21D;73564;45.026;38.952;2024-02-14T07:32:15;17.60;55.05
83596;HTU21D;73564;45.026;38.952;2024-02-14T07:34:42;17.79;53.97
83596;HTU21D;73564;45.026;38.952;2024-02-14T07:37:07;17.92;54.16
83596;HTU21D;73564;45.026;38.952;2024-02-14T07:39:33;18.05;53.90
83596;HTU21D;73564;45.026;38.952;2024-02-14T07:42:02;18.21;53.61
83596;HTU21D;73564;45.026;38.952;2024-02-14T07:44:28;18.34;52.73
83596;HTU21D;73564;45.026;38.952;2024-02-14T07:46:54;18.35;51.85
83596;HTU21D;73564;45.026;38.952;2024-02-14T07:49:20;18.30;51.79
83596;HTU21D;73564;45.026;38.952;2024-02-14T07:51:46;18.30;51.35
83596;HTU21D;73564;45.026;38.952;2024-02-14T07:54:12;18.27;51.49
83596;HTU21D;73564;45.026;38.952;2024-02-14T07:56:37;18.32;50.91
83596;HTU21D;73564;45.026;38.952;2024-02-14T07:59:03;18.39;51.17
83596;HTU21D;73564;45.026;38.952;2024-02-14T08:01:34;18.52;51.03
83596;HTU21D;73564;45.026;38.952;2024-02-14T08:04:04;18.64;50.20
83596;HTU21D;73564;45.026;38.952;2024-02-14T08:06:40;18.70;49.53
83596;HTU21D;73564;45.026;38.952;2024-02-14T08:09:06;18.66;48.81
83596;HTU21D;73564;45.026;38.952;2024-02-14T08:11:45;18.57;48.63
83596;HTU21D;73564;45.026;38.952;2024-02-14T08:14:14;18.55;48.78
83596;HTU21D;73564;45.026;38.952;2024-02-14T08:16:40;18.57;48.24
83596;HTU21D;73564;45.026;38.952;2024-02-14T08:19:05;18.54;47.58
83596;HTU21D;73564;45.026;38.952;2024-02-14T08:21:31;18.43;47.86
83596;HTU21D;73564;45.026;38.952;2024-02-14T08:23:57;18.39;47.94
83596;HTU21D;73564;45.026;38.952;2024-02-14T08:26:24;18.41;47.49
83596;HTU21D;73564;45.026;38.952;2024-02-14T08:28:50;18.47;47.06
83596;HTU21D;73564;45.026;38.952;2024-02-14T08:31:15;18.49;46.14
83596;HTU21D;73564;45.026;38.952;2024-02-14T08:33:42;18.47;46.99
83596;HTU21D;73564;45.026;38.952;2024-02-14T08:36:07;18.54;46.63
83596;HTU21D;73564;45.026;38.952;2024-02-14T08:38:34;18.61;46.84
83596;HTU21D;73564;45.026;38.952;2024-02-14T08:41:01;18.67;47.03
83596;HTU21D;73564;45.026;38.952;2024-02-14T08:43:28;18.77;47.01
83596;HTU21D;73564;45.026;38.952;2024-02-14T08:45:54;18.91;46.57
83596;HTU21D;73564;45.026;38.952;2024-02-14T08:48:21;18.99;47.16
83596;HTU21D;73564;45.026;38.952;2024-02-14T08:50:47;19.12;47.18
83596;HTU21D;73564;45.026;38.952;2024-02-14T08:53:13;19.30;47.03
83596;HTU21D;73564;45.026;38.952;2024-02-14T08:55:41;19.50;46.94
83596;HTU21D;73564;45.026;38.952;2024-02-14T08:58:07;19.67;46.86
83596;HTU21D;73564;45.026;38.952;2024-02-14T09:00:35;19.82;46.65
83596;HTU21D;73564;45.026;38.952;2024-02-14T09:03:03;19.97;46.20
83596;HTU21D;73564;45.026;38.952;2024-02-14T09:05:29;20.07;45.93
83596;HTU21D;73564;45.026;38.952;2024-02-14T09:07:55;20.17;45.20
83596;HTU21D;73564;45.026;38.952;2024-02-14T09:10:21;20.26;45.02
83596;HTU21D;73564;45.026;38.952;2024-02-14T09:12:47;20.34;44.45
83596;HTU21D;73564;45.026;38.952;2024-02-14T09:15:13;20.39;42.73
83596;HTU21D;73564;45.026;38.952;2024-02-14T09:17:39;20.32;42.52
83596;HTU21D;73564;45.026;38.952;2024-02-14T09:20:06;20.18;43.37
83596;HTU21D;73564;45.026;38.952;2024-02-14T09:22:38;20.16;43.70
83596;HTU21D;73564;45.026;38.952;2024-02-14T09:25:04;20.19;44.07
83596;HTU21D;73564;45.026;38.952;2024-02-14T09:27:33;20.22;43.31
83596;HTU21D;73564;45.026;38.952;2024-02-14T09:30:01;20.26;44.03
83596;HTU21D;73564;45.026;38.952;2024-02-14T09:32:32;20.35;43.90
83596;HTU21D;73564;45.026;38.952;2024-02-14T09:34:59;20.45;43.67
83596;HTU21D;73564;45.026;38.952;2024-02-14T09:37:26;20.54;43.43
83596;HTU21D;73564;45.026;38.952;2024-02-14T09:39:52;20.61;43.17
83596;HTU21D;73564;45.026;38.952;2024-02-14T09:42:33;20.68;42.99
83596;HTU21D;73564;45.026;38.952;2024-02-14T09:45:05;20.68;42.42
83596;HTU21D;73564;45.026;38.952;2024-02-14T09:47:32;20.64;42.53
83596;HTU21D;73564;45.026;38.952;2024-02-14T09:50:00;20.69;42.68
83596;HTU21D;73564;45.026;38.952;2024-02-14T09:52:27;20.75;42.83
83596;HTU21D;73564;45.026;38.952;2024-02-14T09:54:53;20.79;42.46
83596;HTU21D;73564;45.026;38.952;2024-02-14T09:57:20;20.81;41.62
83596;HTU21D;73564;45.026;38.952;2024-02-14T09:59:48;20.77;41.48
83596;HTU21D;73564;45.026;38.952;2024-02-14T10:02:14;20.72;41.52
83596;HTU21D;73564;45.026;38.952;2024-02-14T10:04:40;20.72;42.10
83596;HTU21D;73564;45.026;38.952;2024-02-14T10:07:05;20.78;42.54
83596;HTU21D;73564;45.026;38.952;2024-02-14T10:09:40;20.90;42.30
83596;HTU21D;73564;45.026;38.952;2024-02-14T10:12:06;20.99;41.92
83596;HTU21D;73564;45.026;38.952;2024-02-14T10:14:35;21.06;41.66
83596;HTU21D;73564;45.026;38.952;2024-02-14T10:17:03;21.13;41.16
83596;HTU21D;73564;45.026;38.952;2024-02-14T10:19:29;21.13;41.25
83596;HTU21D;73564;45.026;38.952;2024-02-14T10:21:58;21.15;41.31
83596;HTU21D;73564;45.026;38.952;2024-02-14T10:24:29;21.19;41.39
83596;HTU21D;73564;45.026;38.952;2024-02-14T10:26:56;21.23;41.42
83596;HTU21D;73564;45.026;38.952;2024-02-14T10:29:27;21.28;42.01
83596;HTU21D;73564;45.026;38.952;2024-02-14T10:31:53;21.34;41.94
83596;HTU21D;73564;45.026;38.952;2024-02-14T10:34:24;21.43;41.96
83596;HTU21D;73564;45.026;38.952;2024-02-14T10:36:52;21.42;41.82
83596;HTU21D;73564;45.026;38.952;2024-02-14T10:39:19;21.39;41.82
83596;HTU21D;73564;45.026;38.952;2024-02-14T10:41:44;21.36;41.66
83596;HTU21D;73564;45.026;38.952;2024-02-14T10:44:10;21.31;41.36
83596;HTU21D;73564;45.026;38.952;2024-02-14T10:46:39;21.20;41.60
83596;HTU21D;73564;45.026;38.952;2024-02-14T10:49:06;21.09;41.73
83596;HTU21D;73564;45.026;38.952;2024-02-14T10:51:35;21.06;42.19
83596;HTU21D;73564;45.026;38.952;2024-02-14T10:54:04;21.04;42.13
83596;HTU21D;73564;45.026;38.952;2024-02-14T10:56:31;20.99;42.27
83596;HTU21D;73564;45.026;38.952;2024-02-14T10:58:58;20.94;42.52
83596;HTU21D;73564;45.026;38.952;2024-02-14T11:01:27;20.95;42.73
83596;HTU21D;73564;45.026;38.952;2024-02-14T11:04:00;20.98;42.87
83596;HTU21D;73564;45.026;38.952;2024-02-14T11:06:26;21.02;42.90
83596;HTU21D;73564;45.026;38.952;2024-02-14T11:08:56;21.05;43.09
83596;HTU21D;73564;45.026;38.952;2024-02-14T11:11:22;21.10;43.10
83596;HTU21D;73564;45.026;38.952;2024-02-14T11:13:53;21.16;43.16
83596;HTU21D;73564;45.026;38.952;2024-02-14T11:16:24;21.17;42.98
83596;HTU21D;73564;45.026;38.952;2024-02-14T11:18:50;21.18;43.19
83596;HTU21D;73564;45.026;38.952;2024-02-14T11:21:16;21.16;42.42
83596;HTU21D;73564;45.026;38.952;2024-02-14T11:23:53;21.08;42.29
83596;HTU21D;73564;45.026;38.952;2024-02-14T11:26:19;21.01;42.75
83596;HTU21D;73564;45.026;38.952;2024-02-14T11:28:45;21.00;42.61
83596;HTU21D;73564;45.026;38.952;2024-02-14T11:31:17;20.99;42.41
83596;HTU21D;73564;45.026;38.952;2024-02-14T11:33:43;20.94;42.54
83596;HTU21D;73564;45.026;38.952;2024-02-14T11:36:12;20.94;42.26
83596;HTU21D;73564;45.026;38.952;2024-02-14T11:38:41;20.92;42.57
83596;HTU21D;73564;45.026;38.952;2024-02-14T11:41:06;20.88;42.44
83596;HTU21D;73564;45.026;38.952;2024-02-14T11:43:32;20.85;42.39
83596;HTU21D;73564;45.026;38.952;2024-02-14T11:45:58;20.84;42.74
83596;HTU21D;73564;45.026;38.952;2024-02-14T11:48:24;20.87;42.29
83596;HTU21D;73564;45.026;38.952;2024-02-14T11:50:51;20.83;41.96
83596;HTU21D;73564;45.026;38.952;2024-02-14T11:53:17;20.75;42.13
83596;HTU21D;73564;45.026;38.952;2024-02-14T11:55:45;20.71;41.97
83596;HTU21D;73564;45.026;38.952;2024-02-14T11:58:15;20.63;41.65
83596;HTU21D;73564;45.026;38.952;2024-02-14T12:00:45;20.58;41.33
83596;HTU21D;73564;45.026;38.952;2024-02-14T12:03:22;20.53;41.53
83596;HTU21D;73564;45.026;38.952;2024-02-14T12:05:49;20.49;41.71
83596;HTU21D;73564;45.026;38.952;2024-02-14T12:08:16;20.50;41.89
83596;HTU21D;73564;45.026;38.952;2024-02-14T12:10:43;20.50;41.08
83596;HTU21D;73564;45.026;38.952;2024-02-14T12:13:13;20.49;40.71
83596;HTU21D;73564;45.026;38.952;2024-02-14T12:15:49;20.45;40.52
83596;HTU21D;73564;45.026;38.952;2024-02-14T12:18:16;20.41;40.36
83596;HTU21D;73564;45.026;38.952;2024-02-14T12:20:43;20.37;40.13
83596;HTU21D;73564;45.026;38.952;2024-02-14T12:23:14;20.34;39.97
83596;HTU21D;73564;45.026;38.952;2024-02-14T12:25:42;20.26;39.72
83596;HTU21D;73564;45.026;38.952;2024-02-14T12:28:08;20.28;40.13
83596;HTU21D;73564;45.026;38.952;2024-02-14T12:30:49;20.35;40.23
83596;HTU21D;73564;45.026;38.952;2024-02-14T12:33:17;20.41;39.92
83596;HTU21D;73564;45.026;38.952;2024-02-14T12:35:47;20.47;39.94
83596;HTU21D;73564;45.026;38.952;2024-02-14T12:38:14;20.54;39.67
83596;HTU21D;73564;45.026;38.952;2024-02-14T12:40:41;20.56;39.96
83596;HTU21D;73564;45.026;38.952;2024-02-14T12:43:07;20.54;39.81
83596;HTU21D;73564;45.026;38.952;2024-02-14T12:45:33;20.63;40.10
83596;HTU21D;73564;45.026;38.952;2024-02-14T12:47:59;20.65;39.75
83596;HTU21D;73564;45.026;38.952;2024-02-14T12:50:25;20.64;39.78
83596;HTU21D;73564;45.026;38.952;2024-02-14T12:52:51;20.58;39.94
83596;HTU21D;73564;45.026;38.952;2024-02-14T12:55:17;20.55;39.95
83596;HTU21D;73564;45.026;38.952;2024-02-14T12:57:45;20.50;40.22
83596;HTU21D;73564;45.026;38.952;2024-02-14T13:00:11;20.50;40.67
83596;HTU21D;73564;45.026;38.952;2024-02-14T13:02:37;20.54;40.88
83596;HTU21D;73564;45.026;38.952;2024-02-14T13:05:06;20.56;41.18
83596;HTU21D;73564;45.026;38.952;2024-02-14T13:07:33;20.54;41.39
83596;HTU21D;73564;45.026;38.952;2024-02-14T13:09:59;20.51;41.87
83596;HTU21D;73564;45.026;38.952;2024-02-14T13:12:26;20.47;42.10
83596;HTU21D;73564;45.026;38.952;2024-02-14T13:14:52;20.44;42.26
83596;HTU21D;73564;45.026;38.952;2024-02-14T13:17:17;20.34;42.52
83596;HTU21D;73564;45.026;38.952;2024-02-14T13:19:43;20.19;42.91
83596;HTU21D;73564;45.026;38.952;2024-02-14T13:22:09;20.07;43.19
83596;HTU21D;73564;45.026;38.952;2024-02-14T13:24:35;19.97;43.50
83596;HTU21D;73564;45.026;38.952;2024-02-14T13:27:01;19.87;43.75
83596;HTU21D;73564;45.026;38.952;2024-02-14T13:29:27;19.76;44.09
83596;HTU21D;73564;45.026;38.952;2024-02-14T13:31:53;19.66;44.42
83596;HTU21D;73564;45.026;38.952;2024-02-14T13:34:19;19.57;44.66
83596;HTU21D;73564;45.026;38.952;2024-02-14T13:36:46;19.52;44.87
83596;HTU21D;73564;45.026;38.952;2024-02-14T13:39:13;19.41;45.08
83596;HTU21D;73564;45.026;38.952;2024-02-14T13:41:39;19.36;45.38
83596;HTU21D;73564;45.026;38.952;2024-02-14T13:44:07;19.31;45.50
83596;HTU21D;73564;45.026;38.952;2024-02-14T13:46:34;19.25;45.67
83596;HTU21D;73564;45.026;38.952;2024-02-14T13:49:00;19.17;45.97
83596;HTU21D;73564;45.026;38.952;2024-02-14T13:51:26;19.13;46.12
83596;HTU21D;73564;45.026;38.952;2024-02-14T13:53:55;19.09;46.30
83596;HTU21D;73564;45.026;38.952;2024-02-14T13:56:21;19.05;46.51
83596;HTU21D;73564;45.026;38.952;2024-02-14T13:58:51;18.99;46.63
83596;HTU21D;73564;45.026;38.952;2024-02-14T14:01:16;18.94;46.83
83596;HTU21D;73564;45.026;38.952;2024-02-14T14:03:43;18.89;46.93
83596;HTU21D;73564;45.026;38.952;2024-02-14T14:06:09;18.84;47.10
83596;HTU21D;73564;45.026;38.952;2024-02-14T14:08:35;18.80;47.22
83596;HTU21D;73564;45.026;38.952;2024-02-14T14:11:03;18.74;47.31
83596;HTU21D;73564;45.026;38.952;2024-02-14T14:13:29;18.70;47.51
83596;HTU21D;73564;45.026;38.952;2024-02-14T14:16:01;18.68;47.64
83596;HTU21D;73564;45.026;38.952;2024-02-14T14:18:27;18.64;47.71
83596;HTU21D;73564;45.026;38.952;2024-02-14T14:20:53;18.59;47.96
83596;HTU21D;73564;45.026;38.952;2024-02-14T14:23:18;18.54;48.14
83596;HTU21D;73564;45.026;38.952;2024-02-14T14:25:44;18.51;48.32
83596;HTU21D;73564;45.026;38.952;2024-02-14T14:28:10;18.48;48.42
83596;HTU21D;73564;45.026;38.952;2024-02-14T14:30:36;18.43;48.61
83596;HTU21D;73564;45.026;38.952;2024-02-14T14:33:02;18.40;48.73
83596;HTU21D;73564;45.026;38.952;2024-02-14T14:35:29;18.36;48.91
83596;HTU21D;73564;45.026;38.952;2024-02-14T14:37:57;18.30;49.20
83596;HTU21D;73564;45.026;38.952;2024-02-14T14:40:22;18.26;49.29
83596;HTU21D;73564;45.026;38.952;2024-02-14T14:42:50;18.21;49.34
83596;HTU21D;73564;45.026;38.952;2024-02-14T14:45:16;18.19;49.30
83596;HTU21D;73564;45.026;38.952;2024-02-14T14:47:42;18.17;49.27
83596;HTU21D;73564;45.026;38.952;2024-02-14T14:50:08;18.12;49.47
83596;HTU21D;73564;45.026;38.952;2024-02-14T14:52:34;18.10;49.27
83596;HTU21D;73564;45.026;38.952;2024-02-14T14:55:00;18.06;49.35
83596;HTU21D;73564;45.026;38.952;2024-02-14T14:57:25;18.04;49.42
83596;HTU21D;73564;45.026;38.952;2024-02-14T14:59:53;18.04;49.22
83596;HTU21D;73564;45.026;38.952;2024-02-14T15:02:19;17.99;49.24